Main page
METAR-TAF:

METAR-TAF

Airports :

Flughafen Lahr

Lahr, Germany

latitude: 48-22-09N, longitude: 007-49-40E, elevation: 156 m

Current weather observation

The report was made 25 minutes ago, at 05:50 UTC
Wind 1 kt from variable directions
Temperature 16°C
Humidity 94%
Pressure 1018 hPa
Visibility 10 km or more
no clouds below 1500 m and no cumulonimbus

METAR: EDTL 200550Z VRB01KT CAVOK 16/15 Q1018

Time: 08:15 (06:15 UTC)

Forecast

The report was made 13 hours and 15 minutes ago, at 17:00 UTC
Forecast valid from 19 at 18 UTC to 19 at 24 UTC
Wind 10 kt from the North/Northeast
Visibility 10 km or more
Scattered clouds at a height of 4000 ft
Temporary
from 19 at 18 UTC to 19 at 21 UTC
Broken clouds at a height of 3000 ft, Cumulonimbus.
thunderstorm, rain
Becoming
from 19 at 20 UTC to 19 at 22 UTC
Wind 5 kt from the North/Northeast

TAF: EDTL 191700Z 1918/1924 02010KT 9999 SCT040 TEMPO 1918/1921 TSRA BKN030CB BECMG 1920/1922 02005KT

Weather observations and forecasts of more than 4000 airports (METAR and TAF reports).

The available stations are represented by yellow and red dots on the map.

Hover mouse over dot to see the name of the station.

Then click to see weather observations and forecasts.

To change the map : click on the green buttons with a black cross to zoom in, on the green button with a dash to zoom out, or on the green arrows for adjacent maps.


METAR-TAF: